Time;durP1;ratioP1;P1;durP2;ratioP2;P2;SDS_P1;SDS_P2;PMS_P1;PMS_P2;Temp;Humidity;BMP_temperature;BMP_pressure;BME280_temperature;BME280_humidity;BME280_pressure;Samples;Min_cycle;Max_cycle;Signal;HPM_P1;HPM_P2
2022/10/11 00:02:05;;;;;;;;;;;;;;;18.87;68.67;97632.63;597700;237;65958;-70
2022/10/11 00:04:34;;;;;;;;;;;;;;;18.87;68.70;97629.95;597758;237;46670;-70
2022/10/11 00:07:02;;;;;;;;;;;;;;;18.88;68.74;97622.77;597744;237;65129;-70
2022/10/11 00:09:29;;;;;;;;;;;;;;;18.87;68.66;97626.49;597707;237;64888;-70
2022/10/11 00:11:57;;;;;;;;;;;;;;;18.87;68.70;97624.63;597700;237;67221;-70
2022/10/11 00:14:25;;;;;;;;;;;;;;;18.87;68.69;97621.17;597699;237;65742;-70
2022/10/11 00:16:53;;;;;;;;;;;;;;;18.88;68.65;97617.44;597691;237;63006;-70
2022/10/11 00:19:21;;;;;;;;;;;;;;;18.87;68.71;97613.17;597738;237;67074;-70
2022/10/11 00:21:48;;;;;;;;;;;;;;;18.88;68.58;97617.44;597717;237;66833;-70
2022/10/11 00:24:16;;;;;;;;;;;;;;;18.87;68.65;97613.17;596039;237;64944;-70
2022/10/11 00:26:44;;;;;;;;;;;;;;;18.87;68.74;97619.30;596170;237;66980;-70
2022/10/11 00:29:11;;;;;;;;;;;;;;;18.88;68.69;97617.44;597703;237;67065;-70
2022/10/11 00:31:39;;;;;;;;;;;;;;;18.87;68.65;97615.84;597724;237;65320;-70
2022/10/11 00:34:08;;;;;;;;;;;;;;;18.87;68.60;97618.50;597719;237;67380;-70
2022/10/11 00:36:36;;;;;;;;;;;;;;;18.88;68.63;97614.78;597722;237;64887;-69
2022/10/11 00:39:04;;;;;;;;;;;;;;;18.87;68.62;97613.17;597683;237;62813;-69
2022/10/11 00:41:32;;;;;;;;;;;;;;;18.88;68.60;97609.45;597691;237;67049;-70
2022/10/11 00:44:09;;;;;;;;;;;;;;;18.87;68.70;97610.52;597716;234;66879;-70
2022/10/11 00:46:38;;;;;;;;;;;;;;;18.87;68.67;97605.19;597627;237;63682;-71
2022/10/11 00:49:07;;;;;;;;;;;;;;;18.88;68.59;97604.12;597722;237;64898;-71
2022/10/11 00:51:39;;;;;;;;;;;;;;;18.87;68.58;97597.20;597613;235;64531;-70
2022/10/11 00:54:07;;;;;;;;;;;;;;;18.86;68.63;97593.73;597633;237;64938;-71
2022/10/11 00:56:36;;;;;;;;;;;;;;;18.87;68.64;97598.00;597726;237;64827;-71
2022/10/11 00:59:05;;;;;;;;;;;;;;;18.86;68.62;97596.40;597745;237;65187;-71
2022/10/11 01:01:32;;;;;;;;;;;;;;;18.85;68.66;97589.44;597749;237;65988;-71
2022/10/11 01:04:01;;;;;;;;;;;;;;;18.86;68.54;97588.41;597674;237;65836;-71
2022/10/11 01:06:28;;;;;;;;;;;;;;;18.86;68.58;97585.75;597691;237;67221;-71
2022/10/11 01:08:56;;;;;;;;;;;;;;;18.87;68.60;97589.20;597709;235;62831;-71
2022/10/11 01:11:25;;;;;;;;;;;;;;;18.85;68.59;97589.44;597726;237;64680;-71
2022/10/11 01:13:54;;;;;;;;;;;;;;;18.87;68.64;97594.53;597737;237;67039;-71
2022/10/11 01:16:32;;;;;;;;;;;;;;;18.87;68.67;97581.22;597712;237;66032;-70
2022/10/11 01:19:04;;;;;;;;;;;;;;;18.87;68.58;97578.55;597721;237;64693;-71
2022/10/11 01:21:34;;;;;;;;;;;;;;;18.85;68.63;97584.11;597249;234;67009;-70
2022/10/11 01:24:19;;;;;;;;;;;;;;;18.85;68.59;97574.30;597677;237;66057;-71
2022/10/11 01:26:48;;;;;;;;;;;;;;;18.85;68.57;97568.97;597723;237;67439;-70
2022/10/11 01:29:19;;;;;;;;;;;;;;;18.85;68.53;97568.97;597427;237;67640;-70
2022/10/11 01:32:05;;;;;;;;;;;;;;;18.84;68.66;97564.67;597534;235;64920;-70
2022/10/11 01:34:34;;;;;;;;;;;;;;;18.84;68.61;97559.34;597553;237;67067;-71
2022/10/11 01:37:04;;;;;;;;;;;;;;;18.84;68.71;97562.01;597548;237;67725;-70
2022/10/11 01:39:33;;;;;;;;;;;;;;;18.84;68.61;97562.01;597609;237;64057;-70
2022/10/11 01:42:02;;;;;;;;;;;;;;;18.85;68.68;97563.64;592209;237;64959;-70
2022/10/11 01:44:30;;;;;;;;;;;;;;;18.85;68.62;97555.65;592467;238;67359;-70
2022/10/11 01:46:57;;;;;;;;;;;;;;;18.84;68.62;97556.68;591381;236;65985;-70
2022/10/11 01:49:25;;;;;;;;;;;;;;;18.85;68.58;97560.14;590188;238;67073;-69
2022/10/11 01:51:53;;;;;;;;;;;;;;;18.85;68.67;97550.33;590120;238;67109;-69
2022/10/11 01:54:22;;;;;;;;;;;;;;;18.85;68.57;97546.83;592360;238;64892;-69
2022/10/11 01:56:54;;;;;;;;;;;;;;;18.85;68.63;97555.65;591633;236;67001;-69
2022/10/11 01:59:38;;;;;;;;;;;;;;;18.85;68.53;97555.65;586743;240;66949;-69
2022/10/11 02:02:20;;;;;;;;;;;;;;;18.84;68.58;97554.02;587514;240;65224;-69
2022/10/11 02:04:51;;;;;;;;;;;;;;;18.84;68.54;97554.02;587471;241;67120;-69
2022/10/11 02:07:29;;;;;;;;;;;;;;;18.84;68.56;97551.36;592262;238;67646;-69
2022/10/11 02:10:16;;;;;;;;;;;;;;;18.84;68.53;97551.36;587678;238;66078;-71
2022/10/11 02:12:45;;;;;;;;;;;;;;;18.85;68.64;97552.16;587419;240;68006;-70
2022/10/11 02:15:14;;;;;;;;;;;;;;;18.84;68.57;97556.68;588626;239;67207;-70
2022/10/11 02:17:46;;;;;;;;;;;;;;;18.83;68.61;97549.75;590018;238;65071;-70
2022/10/11 02:20:15;;;;;;;;;;;;;;;18.84;68.63;97556.68;586891;238;64976;-70
2022/10/11 02:22:44;;;;;;;;;;;;;;;18.84;68.64;97550.55;590354;238;66880;-70
2022/10/11 02:25:13;;;;;;;;;;;;;;;18.84;68.60;97550.55;590515;238;65890;-70
2022/10/11 02:27:41;;;;;;;;;;;;;;;18.84;68.58;97548.69;586260;240;69940;-70
2022/10/11 02:30:09;;;;;;;;;;;;;;;18.84;68.51;97550.55;586276;242;66993;-70
2022/10/11 02:32:38;;;;;;;;;;;;;;;18.83;68.60;97549.75;586285;242;65071;-70
2022/10/11 02:35:06;;;;;;;;;;;;;;;18.84;68.66;97545.23;586219;240;67577;-69
2022/10/11 02:37:38;;;;;;;;;;;;;;;18.83;68.63;97547.09;592763;238;67210;-69
2022/10/11 02:40:13;;;;;;;;;;;;;;;18.84;68.68;97545.23;587177;238;62674;-69
2022/10/11 02:42:45;;;;;;;;;;;;;;;18.84;68.61;97554.02;590157;238;68245;-69
2022/10/11 02:45:20;;;;;;;;;;;;;;;18.84;68.57;97548.69;590647;240;67165;-69
2022/10/11 02:47:48;;;;;;;;;;;;;;;18.84;68.56;97548.69;590580;238;62760;-69
2022/10/11 02:50:15;;;;;;;;;;;;;;;18.85;68.64;97544.17;590644;240;64982;-69
2022/10/11 02:52:43;;;;;;;;;;;;;;;18.84;68.58;97540.70;590626;240;65027;-69
2022/10/11 02:55:11;;;;;;;;;;;;;;;18.84;68.61;97546.03;592740;238;62815;-69
2022/10/11 02:57:39;;;;;;;;;;;;;;;18.84;68.57;97546.03;588902;240;67203;-69
2022/10/11 03:00:07;;;;;;;;;;;;;;;18.84;68.57;97540.70;593727;238;66977;-69
2022/10/11 03:02:35;;;;;;;;;;;;;;;18.84;68.63;97539.91;590313;238;62970;-69
2022/10/11 03:05:03;;;;;;;;;;;;;;;18.84;68.61;97537.23;590365;240;67059;-69
2022/10/11 03:07:30;;;;;;;;;;;;;;;18.84;68.52;97540.70;592439;238;66873;-69
2022/10/11 03:09:57;;;;;;;;;;;;;;;18.83;68.61;97536.44;589148;240;66075;-69
2022/10/11 03:12:25;;;;;;;;;;;;;;;18.84;68.50;97540.70;590625;240;68117;-69
2022/10/11 03:14:53;;;;;;;;;;;;;;;18.84;68.53;97539.91;592947;238;66672;-70
2022/10/11 03:17:21;;;;;;;;;;;;;;;18.84;68.57;97545.23;588554;239;65996;-70
2022/10/11 03:19:48;;;;;;;;;;;;;;;18.84;68.54;97532.72;590620;240;65654;-70
2022/10/11 03:22:16;;;;;;;;;;;;;;;18.83;68.67;97541.77;590698;240;64658;-70
2022/10/11 03:24:44;;;;;;;;;;;;;;;18.85;68.58;97536.17;590649;239;62739;-70
2022/10/11 03:27:11;;;;;;;;;;;;;;;18.84;68.42;97540.70;593955;238;67030;-70
2022/10/11 03:29:39;;;;;;;;;;;;;;;18.85;68.40;97544.17;593682;235;67183;-70
2022/10/11 03:32:06;;;;;;;;;;;;;;;18.84;68.46;97537.23;589197;240;65893;-70
2022/10/11 03:34:34;;;;;;;;;;;;;;;18.84;68.53;97543.36;590692;240;67114;-70
2022/10/11 03:37:01;;;;;;;;;;;;;;;18.85;68.50;97544.17;591121;238;67030;-70
2022/10/11 03:39:29;;;;;;;;;;;;;;;18.84;68.52;97543.36;590689;238;64874;-70
2022/10/11 03:41:56;;;;;;;;;;;;;;;18.85;68.48;97536.17;590529;238;67213;-70
2022/10/11 03:44:24;;;;;;;;;;;;;;;18.85;68.60;97536.17;591013;238;64621;-70
2022/10/11 03:46:51;;;;;;;;;;;;;;;18.84;68.48;97540.70;590310;238;63744;-70
2022/10/11 03:49:19;;;;;;;;;;;;;;;18.84;68.41;97540.70;594811;238;64100;-70
2022/10/11 03:51:46;;;;;;;;;;;;;;;18.83;68.55;97544.42;588949;240;65547;-70
2022/10/11 03:54:14;;;;;;;;;;;;;;;18.84;68.41;97546.03;591639;238;64049;-70
2022/10/11 03:56:41;;;;;;;;;;;;;;;18.84;68.60;97547.89;589908;238;66914;-70
2022/10/11 03:59:09;;;;;;;;;;;;;;;18.84;68.45;97547.89;590509;240;64639;-70
2022/10/11 04:01:37;;;;;;;;;;;;;;;18.83;68.48;97549.75;592635;238;64915;-70
2022/10/11 04:04:05;;;;;;;;;;;;;;;18.83;68.46;97539.10;588832;238;64610;-70
2022/10/11 04:06:33;;;;;;;;;;;;;;;18.83;68.60;97549.75;590641;240;66543;-70
2022/10/11 04:09:01;;;;;;;;;;;;;;;18.83;68.53;97543.62;590633;240;62822;-70
2022/10/11 04:11:28;;;;;;;;;;;;;;;18.83;68.51;97544.42;594591;238;65854;-70
2022/10/11 04:13:58;;;;;;;;;;;;;;;18.84;68.46;97537.23;592338;237;48000;-70
2022/10/11 04:16:25;;;;;;;;;;;;;;;18.83;68.54;97541.77;591051;238;63668;-70
2022/10/11 04:18:53;;;;;;;;;;;;;;;18.83;68.53;97539.10;592894;238;64934;-70
2022/10/11 04:21:20;;;;;;;;;;;;;;;18.83;68.62;97528.45;589490;240;64832;-70
2022/10/11 04:23:48;;;;;;;;;;;;;;;18.83;68.51;97530.31;595413;238;64964;-70
2022/10/11 04:26:15;;;;;;;;;;;;;;;18.83;68.59;97523.13;590409;235;67184;-70
2022/10/11 04:28:45;;;;;;;;;;;;;;;18.83;68.40;97524.98;589771;238;64867;-70
2022/10/11 04:31:14;;;;;;;;;;;;;;;18.83;68.55;97531.11;592581;236;47235;-71
2022/10/11 04:33:42;;;;;;;;;;;;;;;18.83;68.48;97533.77;589868;238;64880;-70
2022/10/11 04:36:10;;;;;;;;;;;;;;;18.83;68.53;97533.77;590576;240;66695;-70
2022/10/11 04:38:37;;;;;;;;;;;;;;;18.83;68.60;97536.44;590619;240;65186;-70
2022/10/11 04:41:08;;;;;;;;;;;;;;;18.83;68.46;97535.64;591713;238;67102;-70
2022/10/11 04:43:36;;;;;;;;;;;;;;;18.82;68.37;97537.50;597337;237;65344;-70
2022/10/11 04:46:04;;;;;;;;;;;;;;;18.83;68.50;97539.10;597647;237;63705;-70
2022/10/11 04:48:32;;;;;;;;;;;;;;;18.83;68.41;97549.75;597700;234;67025;-70
2022/10/11 04:50:59;;;;;;;;;;;;;;;18.83;68.47;97546.29;597708;237;64918;-70
2022/10/11 04:53:27;;;;;;;;;;;;;;;18.83;68.46;97549.75;597704;237;64957;-70
2022/10/11 04:56:02;;;;;;;;;;;;;;;18.83;68.47;97551.61;597703;237;66951;-70
2022/10/11 04:58:30;;;;;;;;;;;;;;;18.83;68.41;97548.95;597602;237;67685;-70
2022/10/11 05:00:57;;;;;;;;;;;;;;;18.83;68.35;97555.08;597725;237;65146;-70
2022/10/11 05:03:25;;;;;;;;;;;;;;;18.82;68.42;97550.81;597685;237;66852;-70
2022/10/11 05:05:53;;;;;;;;;;;;;;;18.83;68.35;97554.28;597728;237;64830;-70
2022/10/11 05:08:26;;;;;;;;;;;;;;;18.82;68.36;97553.48;597666;237;63765;-70
2022/10/11 05:10:58;;;;;;;;;;;;;;;18.82;68.46;97553.48;597388;237;67336;-71
2022/10/11 05:13:27;;;;;;;;;;;;;;;18.83;68.34;97559.61;597709;235;66848;-71
2022/10/11 05:15:55;;;;;;;;;;;;;;;18.82;68.38;97547.32;597675;237;62887;-70
2022/10/11 05:18:22;;;;;;;;;;;;;;;18.83;68.43;97554.28;597686;237;64840;-71
2022/10/11 05:20:51;;;;;;;;;;;;;;;18.82;68.48;97548.15;597761;237;64835;-71
2022/10/11 05:23:19;;;;;;;;;;;;;;;18.82;68.48;97558.80;597466;237;62768;-71
2022/10/11 05:25:47;;;;;;;;;;;;;;;18.83;68.43;97554.28;597764;237;65768;-71
2022/10/11 05:28:14;;;;;;;;;;;;;;;18.83;68.45;97551.61;597591;237;64833;-71
2022/10/11 05:30:42;;;;;;;;;;;;;;;18.82;68.54;97545.48;597677;234;62787;-71
2022/10/11 05:33:09;;;;;;;;;;;;;;;18.82;68.36;97552.64;597509;237;65881;-70
2022/10/11 05:35:37;;;;;;;;;;;;;;;18.82;68.34;97555.31;596840;237;66895;-71
2022/10/11 05:38:07;;;;;;;;;;;;;;;18.83;68.45;97555.08;596663;237;65197;-71
2022/10/11 05:40:34;;;;;;;;;;;;;;;18.82;68.34;97564.13;597588;237;67041;-71
2022/10/11 05:43:01;;;;;;;;;;;;;;;18.82;68.37;97558.80;595222;237;67745;-71
2022/10/11 05:45:29;;;;;;;;;;;;;;;18.82;68.30;97564.13;593014;238;65946;-71
2022/10/11 05:47:56;;;;;;;;;;;;;;;18.82;68.50;97556.14;590097;238;67170;-71
2022/10/11 05:50:24;;;;;;;;;;;;;;;18.82;68.29;97558.80;586922;241;66893;-71
2022/10/11 05:52:51;;;;;;;;;;;;;;;18.83;68.36;97557.74;594030;238;65035;-71
2022/10/11 05:55:19;;;;;;;;;;;;;;;18.82;68.37;97564.13;589955;238;67086;-76
2022/10/11 05:57:46;;;;;;;;;;;;;;;18.83;68.64;97564.93;589763;236;68105;-71
2022/10/11 06:00:14;;;;;;;;;;;;;;;18.83;68.50;97565.73;586803;241;64902;-73
2022/10/11 06:02:41;;;;;;;;;;;;;;;18.83;68.66;97565.73;588362;241;68627;-71
2022/10/11 06:05:09;;;;;;;;;;;;;;;18.82;68.76;97553.48;588236;241;67691;-71
2022/10/11 06:07:37;;;;;;;;;;;;;;;18.82;68.37;97558.80;588396;241;65070;-73
2022/10/11 06:10:05;;;;;;;;;;;;;;;18.82;68.46;97561.47;588482;241;67128;-74
2022/10/11 06:12:33;;;;;;;;;;;;;;;18.81;68.51;97559.83;588246;239;64939;-75
2022/10/11 06:15:00;;;;;;;;;;;;;;;18.82;70.01;97555.31;588470;241;63712;-70
2022/10/11 06:17:28;;;;;;;;;;;;;;;18.81;70.13;97559.83;588454;241;67060;-77
2022/10/11 06:19:55;;;;;;;;;;;;;;;18.79;68.86;97559.27;588412;240;67030;-74
2022/10/11 06:22:25;;;;;;;;;;;;;;;18.80;68.73;97555.56;588417;241;64878;-75
2022/10/11 06:24:52;;;;;;;;;;;;;;;18.82;68.85;97557.97;588393;241;68200;-70
2022/10/11 06:27:20;;;;;;;;;;;;;;;18.81;69.47;97565.16;588423;241;64874;-75
2022/10/11 06:29:47;;;;;;;;;;;;;;;18.83;69.36;97564.93;588449;241;65986;-68
2022/10/11 06:32:15;;;;;;;;;;;;;;;18.83;69.18;97562.27;588395;241;64951;-74
2022/10/11 06:34:43;;;;;;;;;;;;;;;18.83;68.92;97562.27;588388;240;65158;-74
2022/10/11 06:37:10;;;;;;;;;;;;;;;18.83;68.95;97565.73;588490;241;62906;-74
2022/10/11 06:39:38;;;;;;;;;;;;;;;18.83;68.37;97564.93;588384;240;67038;-71
2022/10/11 06:42:05;;;;;;;;;;;;;;;18.84;68.54;97569.20;593107;238;64966;-71
2022/10/11 06:44:33;;;;;;;;;;;;;;;18.85;68.77;97568.13;596153;238;64909;-71
2022/10/11 06:47:00;;;;;;;;;;;;;;;18.86;68.56;97569.77;596105;238;67980;-77
2022/10/11 06:49:28;;;;;;;;;;;;;;;18.87;68.58;97575.89;596219;238;66915;-68
2022/10/11 06:51:55;;;;;;;;;;;;;;;18.87;68.75;97578.55;596171;238;64852;-73
2022/10/11 06:54:23;;;;;;;;;;;;;;;18.86;68.89;97569.77;596131;238;67306;-69
2022/10/11 06:56:50;;;;;;;;;;;;;;;18.85;68.35;97579.62;596099;238;67084;-71
2022/10/11 06:59:18;;;;;;;;;;;;;;;18.85;68.22;97560.98;596207;238;64860;-73
2022/10/11 07:01:46;;;;;;;;;;;;;;;18.84;68.97;97572.66;596184;238;65857;-71
2022/10/11 07:04:13;;;;;;;;;;;;;;;18.84;67.84;97572.66;596212;238;67970;-71
2022/10/11 07:06:41;;;;;;;;;;;;;;;18.85;68.88;97574.30;596112;238;66087;-71
2022/10/11 07:09:09;;;;;;;;;;;;;;;18.85;67.97;97571.63;596075;238;64841;-72
2022/10/11 07:11:37;;;;;;;;;;;;;;;18.84;67.62;97570.00;595675;238;65477;-74
2022/10/11 07:14:06;;;;;;;;;;;;;;;18.85;67.93;97573.46;595448;238;66059;-68
2022/10/11 07:16:35;;;;;;;;;;;;;;;18.84;67.74;97567.33;595917;238;67030;-74
2022/10/11 07:19:03;;;;;;;;;;;;;;;18.85;67.60;97570.80;596148;238;67168;-74
2022/10/11 07:21:31;;;;;;;;;;;;;;;18.87;66.83;97570.56;596194;238;65596;-75
2022/10/11 07:24:01;;;;;;;;;;;;;;;18.88;66.92;97565.02;596104;238;67256;-73
2022/10/11 07:26:29;;;;;;;;;;;;;;;18.88;66.90;97567.67;596115;238;67312;-68
2022/10/11 07:28:56;;;;;;;;;;;;;;;18.89;67.22;97573.80;596152;238;65158;-73
2022/10/11 07:31:25;;;;;;;;;;;;;;;18.89;67.36;97568.47;596100;238;66950;-71
2022/10/11 07:33:52;;;;;;;;;;;;;;;18.89;67.67;97571.94;596156;238;66929;-74
2022/10/11 07:36:22;;;;;;;;;;;;;;;18.89;67.87;97563.95;596146;238;65066;-76
2022/10/11 07:38:49;;;;;;;;;;;;;;;18.90;67.88;97573.55;596142;238;67252;-74
2022/10/11 07:41:17;;;;;;;;;;;;;;;18.91;68.09;97566.38;595263;236;65027;-74
2022/10/11 07:43:46;;;;;;;;;;;;;;;18.91;68.23;97566.38;593050;239;64917;-69
2022/10/11 07:46:14;;;;;;;;;;;;;;;18.91;68.05;97566.38;593035;239;64872;-78
2022/10/11 07:48:41;;;;;;;;;;;;;;;18.94;68.92;97571.22;592988;239;65830;-74
2022/10/11 07:51:14;;;;;;;;;;;;;;;18.92;69.76;97568.78;593039;239;64880;-76
2022/10/11 07:53:42;;;;;;;;;;;;;;;18.91;68.55;97571.70;593145;239;66699;-74
2022/10/11 07:56:11;;;;;;;;;;;;;;;18.90;68.18;97573.55;593043;239;67059;-75
2022/10/11 07:58:40;;;;;;;;;;;;;;;18.91;68.00;97572.51;592968;239;65130;-76
2022/10/11 08:01:09;;;;;;;;;;;;;;;18.92;67.87;97578.64;593041;239;66715;-77
2022/10/11 08:03:37;;;;;;;;;;;;;;;18.91;67.89;97572.51;593078;239;66733;-77
2022/10/11 08:06:05;;;;;;;;;;;;;;;18.92;67.86;97567.98;593013;239;64871;-75
2022/10/11 08:08:32;;;;;;;;;;;;;;;18.92;67.88;97575.97;592990;239;64800;-75
2022/10/11 08:11:00;;;;;;;;;;;;;;;18.91;67.90;97574.38;593028;239;67564;-75
2022/10/11 08:13:27;;;;;;;;;;;;;;;18.93;68.04;97572.25;592954;238;64956;-76
2022/10/11 08:15:55;;;;;;;;;;;;;;;18.91;68.00;97575.17;593007;239;66960;-74
2022/10/11 08:18:22;;;;;;;;;;;;;;;18.92;68.02;97579.44;593089;239;66846;-75
2022/10/11 08:20:50;;;;;;;;;;;;;;;18.92;68.14;97581.30;592932;239;65155;-74
2022/10/11 08:23:18;;;;;;;;;;;;;;;18.93;68.00;97582.91;593028;239;67253;-74
2022/10/11 08:25:47;;;;;;;;;;;;;;;18.92;68.12;97579.44;593018;239;68247;-77
2022/10/11 08:28:16;;;;;;;;;;;;;;;18.92;68.23;97578.64;592833;239;62792;-76
2022/10/11 08:30:48;;;;;;;;;;;;;;;18.94;68.39;97571.22;592996;239;67219;-76
2022/10/11 08:33:16;;;;;;;;;;;;;;;18.92;68.29;97571.45;592357;239;66928;-76
2022/10/11 08:35:44;;;;;;;;;;;;;;;18.93;68.34;97569.59;593070;239;65082;-73
2022/10/11 08:38:12;;;;;;;;;;;;;;;18.93;68.40;97565.06;592995;239;64773;-76
2022/10/11 08:40:41;;;;;;;;;;;;;;;18.93;68.50;97569.59;592941;238;64940;-75
2022/10/11 08:43:10;;;;;;;;;;;;;;;18.94;68.43;97576.55;592706;239;63800;-76
2022/10/11 08:45:45;;;;;;;;;;;;;;;18.92;68.14;97568.78;592998;239;64615;-75
2022/10/11 08:48:18;;;;;;;;;;;;;;;18.93;68.19;97567.72;592964;239;64843;-75
2022/10/11 08:50:46;;;;;;;;;;;;;;;18.92;68.29;97563.45;592798;239;63756;-75
2022/10/11 08:53:20;;;;;;;;;;;;;;;18.94;68.37;97571.22;593063;239;44598;-76
2022/10/11 08:55:49;;;;;;;;;;;;;;;18.93;68.27;97561.59;592959;239;66954;-71
2022/10/11 08:58:18;;;;;;;;;;;;;;;18.93;68.35;97564.26;597212;236;66050;-74
2022/10/11 09:00:47;;;;;;;;;;;;;;;18.93;68.32;97558.93;601159;236;64462;-73
2022/10/11 09:03:17;;;;;;;;;;;;;;;18.92;69.31;97546.68;601004;236;66939;-75
2022/10/11 09:05:49;;;;;;;;;;;;;;;18.91;68.61;97539.75;601144;236;65123;-76
2022/10/11 09:08:18;;;;;;;;;;;;;;;18.91;68.56;97534.42;601179;236;67244;-72
2022/10/11 09:10:50;;;;;;;;;;;;;;;18.91;68.33;97534.42;600363;236;66909;-75
2022/10/11 09:13:19;;;;;;;;;;;;;;;18.91;68.15;97539.75;601081;236;66091;-72
2022/10/11 09:15:57;;;;;;;;;;;;;;;18.91;68.01;97534.42;600866;235;67197;-72
2022/10/11 09:18:26;;;;;;;;;;;;;;;18.91;67.95;97547.73;596512;236;66919;-67
2022/10/11 09:21:14;;;;;;;;;;;;;;;18.91;68.22;97547.73;601044;235;46638;-73
2022/10/11 09:23:52;;;;;;;;;;;;;;;18.91;67.70;97551.20;601087;236;64878;-74
2022/10/11 09:26:21;;;;;;;;;;;;;;;18.91;67.64;97545.88;601008;236;67096;-74
2022/10/11 09:28:57;;;;;;;;;;;;;;;18.91;67.52;97550.41;600927;235;62455;-77
2022/10/11 09:31:24;;;;;;;;;;;;;;;18.92;67.90;97554.67;600804;235;64823;-71
2022/10/11 09:33:52;;;;;;;;;;;;;;;18.91;67.74;97555.73;601161;236;67556;-76
2022/10/11 09:36:21;;;;;;;;;;;;;;;18.92;67.78;97549.34;601029;236;64881;-76
2022/10/11 09:38:50;;;;;;;;;;;;;;;18.92;67.80;97560.80;600861;235;65072;-76
2022/10/11 09:41:22;;;;;;;;;;;;;;;18.92;67.81;97554.67;601069;235;65265;-76
2022/10/11 09:43:51;;;;;;;;;;;;;;;18.91;67.67;97545.88;603308;235;64966;-76
2022/10/11 09:46:26;;;;;;;;;;;;;;;18.91;67.72;97539.75;603677;235;64808;-77
2022/10/11 09:48:55;;;;;;;;;;;;;;;18.91;67.64;97540.55;601350;235;67050;-77
2022/10/11 09:51:24;;;;;;;;;;;;;;;18.91;67.72;97540.55;603630;235;64868;-77
2022/10/11 09:53:56;;;;;;;;;;;;;;;18.91;67.63;97540.55;603690;235;67051;-77
2022/10/11 09:56:25;;;;;;;;;;;;;;;18.92;67.54;97544.02;602941;235;66872;-77
2022/10/11 09:59:10;;;;;;;;;;;;;;;18.91;67.68;97537.09;603620;235;66209;-77
2022/10/11 10:01:37;;;;;;;;;;;;;;;18.91;67.60;97535.23;603616;235;66913;-72
2022/10/11 10:04:10;;;;;;;;;;;;;;;18.92;67.41;97536.02;603674;235;64621;-71
2022/10/11 10:06:38;;;;;;;;;;;;;;;18.92;67.35;97544.81;603341;235;62828;-76
2022/10/11 10:09:16;;;;;;;;;;;;;;;18.92;67.34;97536.83;603689;235;68309;-73
2022/10/11 10:11:44;;;;;;;;;;;;;;;18.92;67.23;97531.50;598493;235;66826;-77
2022/10/11 10:14:22;;;;;;;;;;;;;;;18.93;67.67;97529.64;603517;235;65288;-72
2022/10/11 10:16:51;;;;;;;;;;;;;;;18.93;67.90;97529.64;603685;235;68078;-74
2022/10/11 10:19:24;;;;;;;;;;;;;;;18.92;67.74;97534.16;603501;233;64902;-73
2022/10/11 10:21:53;;;;;;;;;;;;;;;18.93;67.86;97526.97;603649;235;64919;-77
2022/10/11 10:24:22;;;;;;;;;;;;;;;18.93;67.69;97526.97;603717;235;67018;-73
2022/10/11 10:26:54;;;;;;;;;;;;;;;18.93;67.58;97543.75;601506;235;64863;-73
2022/10/11 10:29:22;;;;;;;;;;;;;;;18.94;67.42;97544.58;602363;235;62984;-76
2022/10/11 10:31:51;;;;;;;;;;;;;;;18.94;67.63;97539.26;603731;235;67284;-71
2022/10/11 10:34:23;;;;;;;;;;;;;;;18.93;67.79;97537.63;603607;235;65568;-71
2022/10/11 10:36:52;;;;;;;;;;;;;;;18.94;67.96;97533.93;603548;235;63816;-71
2022/10/11 10:39:24;;;;;;;;;;;;;;;18.95;68.07;97536.33;603719;235;67037;-71
2022/10/11 10:41:52;;;;;;;;;;;;;;;18.94;68.08;97525.94;603503;235;65727;-73
2022/10/11 10:44:19;;;;;;;;;;;;;;;18.93;67.88;97522.45;603729;235;63015;-74
2022/10/11 10:46:49;;;;;;;;;;;;;;;18.94;67.92;97520.61;603667;235;67235;-73
2022/10/11 10:49:27;;;;;;;;;;;;;;;18.94;68.02;97520.61;603658;234;66648;-75
2022/10/11 10:52:04;;;;;;;;;;;;;;;18.94;68.02;97523.28;603622;235;62494;-71
2022/10/11 10:54:39;;;;;;;;;;;;;;;18.94;67.91;97517.95;603392;235;67062;-70
2022/10/11 10:57:09;;;;;;;;;;;;;;;18.94;67.83;97517.95;603575;235;67436;-71
2022/10/11 10:59:38;;;;;;;;;;;;;;;18.93;67.89;97517.12;603336;235;62768;-74
2022/10/11 11:02:22;;;;;;;;;;;;;;;18.94;67.77;97520.61;603343;235;65030;-72
2022/10/11 11:04:51;;;;;;;;;;;;;;;18.94;67.78;97509.95;603506;235;67603;-70
2022/10/11 11:07:23;;;;;;;;;;;;;;;18.94;68.00;97512.62;602929;235;62891;-72
2022/10/11 11:09:58;;;;;;;;;;;;;;;18.94;67.76;97518.75;603461;235;65736;-70
2022/10/11 11:12:35;;;;;;;;;;;;;;;18.94;67.74;97513.42;603608;235;66879;-71
2022/10/11 11:15:04;;;;;;;;;;;;;;;18.94;68.09;97513.42;603435;235;66104;-70
2022/10/11 11:17:36;;;;;;;;;;;;;;;18.95;67.92;97508.90;603016;235;65475;-70
2022/10/11 11:20:17;;;;;;;;;;;;;;;18.95;67.78;97506.23;603670;235;67828;-71
2022/10/11 11:23:05;;;;;;;;;;;;;;;18.95;67.81;97509.70;603530;235;63966;-70
2022/10/11 11:25:51;;;;;;;;;;;;;;;18.95;67.86;97500.91;603630;235;67161;-70
2022/10/11 11:28:26;;;;;;;;;;;;;;;18.94;67.79;97499.31;603695;235;66979;-70
2022/10/11 11:30:55;;;;;;;;;;;;;;;18.93;67.92;97495.81;603370;235;62828;-71
2022/10/11 11:33:30;;;;;;;;;;;;;;;18.94;67.86;97491.31;603513;235;67036;-70
2022/10/11 11:35:59;;;;;;;;;;;;;;;18.95;67.92;97498.24;601449;235;67829;-70
2022/10/11 11:38:28;;;;;;;;;;;;;;;18.94;67.88;97489.45;603621;235;64988;-71
2022/10/11 11:40:57;;;;;;;;;;;;;;;18.94;67.95;97489.45;602820;235;66943;-70
2022/10/11 11:43:32;;;;;;;;;;;;;;;18.95;67.93;97495.58;603164;235;67059;-69
2022/10/11 11:46:05;;;;;;;;;;;;;;;18.96;67.94;97491.85;602994;235;63851;-70
2022/10/11 11:48:32;;;;;;;;;;;;;;;18.95;67.92;97484.92;603112;235;67241;-70
2022/10/11 11:51:01;;;;;;;;;;;;;;;18.94;67.99;97480.66;603203;234;64775;-70
2022/10/11 11:53:48;;;;;;;;;;;;;;;18.94;68.28;97476.14;603112;235;62733;-70
2022/10/11 11:56:27;;;;;;;;;;;;;;;18.94;68.14;97488.66;603057;235;67128;-69
2022/10/11 11:59:08;;;;;;;;;;;;;;;18.94;67.88;97485.99;602894;235;65120;-69
2022/10/11 12:01:40;;;;;;;;;;;;;;;18.94;67.72;97491.31;603048;235;62973;-72
2022/10/11 12:04:12;;;;;;;;;;;;;;;18.94;67.62;97485.99;603155;235;67064;-70
2022/10/11 12:06:40;;;;;;;;;;;;;;;18.93;67.40;97479.03;601601;235;66569;-70
2022/10/11 12:09:18;;;;;;;;;;;;;;;18.93;67.34;97485.16;603144;235;62765;-70
2022/10/11 12:11:56;;;;;;;;;;;;;;;18.93;67.40;97479.83;603153;235;64622;-71
2022/10/11 12:14:28;;;;;;;;;;;;;;;18.93;67.21;97477.17;602799;235;65783;-70
2022/10/11 12:16:57;;;;;;;;;;;;;;;18.94;67.31;97485.99;603063;235;64833;-70
2022/10/11 12:19:26;;;;;;;;;;;;;;;18.94;67.28;97481.46;598599;235;66772;-70
2022/10/11 12:21:55;;;;;;;;;;;;;;;18.94;67.25;97475.34;603118;235;66658;-70
2022/10/11 12:24:23;;;;;;;;;;;;;;;18.94;67.18;97486.79;602353;235;64935;-70
2022/10/11 12:26:55;;;;;;;;;;;;;;;18.94;67.31;97491.31;603105;235;64625;-70
2022/10/11 12:29:41;;;;;;;;;;;;;;;18.95;67.11;97492.92;603043;235;66975;-70
2022/10/11 12:32:11;;;;;;;;;;;;;;;18.95;67.09;97495.58;603158;235;65092;-71
2022/10/11 12:34:40;;;;;;;;;;;;;;;18.95;67.13;97490.25;603110;235;64443;-70
2022/10/11 12:37:19;;;;;;;;;;;;;;;18.94;67.54;97480.66;603082;235;61432;-69
2022/10/11 12:39:51;;;;;;;;;;;;;;;18.95;67.40;97482.27;603153;235;65020;-71
2022/10/11 12:42:23;;;;;;;;;;;;;;;18.95;67.11;97493.72;603082;235;67487;-69
2022/10/11 12:45:08;;;;;;;;;;;;;;;18.96;67.20;97481.20;603012;235;66869;-71
2022/10/11 12:47:43;;;;;;;;;;;;;;;18.96;67.31;97483.86;603133;235;64983;-69
2022/10/11 12:50:21;;;;;;;;;;;;;;;18.96;67.09;97478.53;595286;235;67321;-71
2022/10/11 12:52:54;;;;;;;;;;;;;;;18.96;67.28;97491.85;602811;235;66923;-69
2022/10/11 12:55:40;;;;;;;;;;;;;;;18.96;67.55;97497.19;603051;235;66093;-72
2022/10/11 12:58:11;;;;;;;;;;;;;;;18.95;67.65;97491.05;603098;235;65800;-67
2022/10/11 13:00:57;;;;;;;;;;;;;;;18.95;67.28;97488.39;603125;235;66818;-68
2022/10/11 13:03:26;;;;;;;;;;;;;;;18.95;67.21;97492.92;602856;235;65369;-69